Map

Track Data

SID SEASON NUMBER BASIN SUBBASIN NAME ISO_TIME NATURE LAT LON WMO_WIND WMO_PRES WMO_AGENCY TRACK_TYPE DIST2LAND LANDFALL IFLAG USA_AGENCY USA_ATCF_ID USA_LAT USA_LON USA_RECORD USA_STATUS USA_WIND USA_PRES USA_SSHS USA_R34_NE USA_R34_SE USA_R34_SW USA_R34_NW USA_R50_NE USA_R50_SE USA_R50_SW USA_R50_NW USA_R64_NE USA_R64_SE USA_R64_SW USA_R64_NW USA_POCI USA_ROCI USA_RMW USA_EYE TOKYO_LAT TOKYO_LON TOKYO_GRADE TOKYO_WIND TOKYO_PRES TOKYO_R50_DIR TOKYO_R50_LONG TOKYO_R50_SHORT TOKYO_R30_DIR TOKYO_R30_LONG TOKYO_R30_SHORT TOKYO_LAND CMA_LAT CMA_LON CMA_CAT CMA_WIND CMA_PRES HKO_LAT HKO_LON HKO_CAT HKO_WIND HKO_PRES NEWDELHI_LAT NEWDELHI_LON NEWDELHI_GRADE NEWDELHI_WIND NEWDELHI_PRES NEWDELHI_CI NEWDELHI_DP NEWDELHI_POCI REUNION_LAT REUNION_LON REUNION_TYPE REUNION_WIND REUNION_PRES REUNION_TNUM REUNION_CI REUNION_RMW REUNION_R34_NE REUNION_R34_SE REUNION_R34_SW REUNION_R34_NW REUNION_R50_NE REUNION_R50_SE REUNION_R50_SW REUNION_R50_NW REUNION_R64_NE REUNION_R64_SE REUNION_R64_SW REUNION_R64_NW BOM_LAT BOM_LON BOM_TYPE BOM_WIND BOM_PRES BOM_TNUM BOM_CI BOM_RMW BOM_R34_NE BOM_R34_SE BOM_R34_SW BOM_R34_NW BOM_R50_NE BOM_R50_SE BOM_R50_SW BOM_R50_NW BOM_R64_NE BOM_R64_SE BOM_R64_SW BOM_R64_NW BOM_ROCI BOM_POCI BOM_EYE BOM_POS_METHOD BOM_PRES_METHOD NADI_LAT NADI_LON NADI_CAT NADI_WIND NADI_PRES WELLINGTON_LAT WELLINGTON_LON WELLINGTON_WIND WELLINGTON_PRES DS824_LAT DS824_LON DS824_STAGE DS824_WIND DS824_PRES TD9636_LAT TD9636_LON TD9636_STAGE TD9636_WIND TD9636_PRES TD9635_LAT TD9635_LON TD9635_WIND TD9635_PRES TD9635_ROCI NEUMANN_LAT NEUMANN_LON NEUMANN_CLASS NEUMANN_WIND NEUMANN_PRES MLC_LAT MLC_LON MLC_CLASS MLC_WIND MLC_PRES USA_GUST BOM_GUST BOM_GUST_PER REUNION_GUST REUNION_GUST_PER USA_SEAHGT USA_SEARAD_NE USA_SEARAD_SE USA_SEARAD_SW USA_SEARAD_NW STORM_SPEED STORM_DIR
1907242N17118 1907 44 WP MM NOT_NAMED 1907-08-29 16:00:00 NR 16.5000 117.500 main 241 241 __________O___ -1 16.5000 117.500 2 2 305
1907242N17118 1907 44 WP MM NOT_NAMED 1907-08-29 18:00:00 NR 16.5395 117.443 main 251 251 __________P___ -1 16.5395 117.443 2 2 305
1907242N17118 1907 44 WP MM NOT_NAMED 1907-08-29 21:00:00 NR 16.6089 117.341 main 264 264 __________P___ -1 16.6089 117.341 2 3 305
1907242N17118 1907 44 WP MM NOT_NAMED 1907-08-30 00:00:00 NR 16.7045 117.198 main 278 278 __________P___ -1 16.7045 117.198 2 4 305
1907242N17118 1907 44 WP MM NOT_NAMED 1907-08-30 03:00:00 NR 16.8421 116.989 main 301 305 __________P___ -1 16.8421 116.989 2 5 305
1907242N17118 1907 44 WP MM NOT_NAMED 1907-08-30 04:00:00 NR 16.9000 116.900 main 315 315 __________O___ -1 16.9000 116.900 2 7 304
1907242N17118 1907 44 WP MM NOT_NAMED 1907-08-30 06:00:00 NR 17.0353 116.691 main 338 338 __________P___ -1 17.0353 116.691 2 8 304
1907242N17118 1907 44 WP MM NOT_NAMED 1907-08-30 09:00:00 NR 17.2761 116.321 main 389 389 __________P___ -1 17.2761 116.321 2 9 305
1907242N17118 1907 44 WP MM NOT_NAMED 1907-08-30 12:00:00 NR 17.5425 115.918 main 436 439 __________P___ -1 17.5425 115.918 2 9 305
1907242N17118 1907 44 WP MM NOT_NAMED 1907-08-30 15:00:00 NR 17.8128 115.523 main 487 487 __________P___ -1 17.8128 115.523 2 9 306
1907242N17118 1907 44 WP MM NOT_NAMED 1907-08-30 16:00:00 NR 17.9000 115.400 main 500 472 __________O___ -1 17.9000 115.400 2 8 309
1907242N17118 1907 44 WP MM NOT_NAMED 1907-08-30 18:00:00 NR 18.0633 115.199 main 472 435 __________P___ -1 18.0633 115.199 2 7 312
1907242N17118 1907 44 WP MM NOT_NAMED 1907-08-30 21:00:00 NR 18.3022 114.923 main 435 407 __________P___ -1 18.3022 114.923 2 7 312
1907242N17118 1907 44 WP MM NOT_NAMED 1907-08-31 00:00:00 NR 18.5286 114.660 main 407 371 __________P___ -1 18.5286 114.660 2 7 311
1907242N17118 1907 44 WP MM NOT_NAMED 1907-08-31 03:00:00 NR 18.7361 114.393 main 371 357 __________P___ -1 18.7361 114.393 2 7 309
1907242N17118 1907 44 WP MM NOT_NAMED 1907-08-31 04:00:00 NR 18.8000 114.300 main 357 334 __________O___ -1 18.8000 114.300 2 7 303
1907242N17118 1907 44 WP MM NOT_NAMED 1907-08-31 06:00:00 NR 18.9170 114.100 main 334 299 __________P___ -1 18.9170 114.100 2 7 299
1907242N17118 1907 44 WP MM NOT_NAMED 1907-08-31 09:00:00 NR 19.0737 113.787 main 299 265 __________P___ -1 19.0737 113.787 2 7 296
1907242N17118 1907 44 WP MM NOT_NAMED 1907-08-31 12:00:00 NR 19.2161 113.460 main 265 221 __________P___ -1 19.2161 113.460 2 7 294
1907242N17118 1907 44 WP MM NOT_NAMED 1907-08-31 15:00:00 NR 19.3536 113.117 main 221 210 __________P___ -1 19.3536 113.117 2 7 293
1907242N17118 1907 44 WP MM NOT_NAMED 1907-08-31 16:00:00 NR 19.4000 113.000 main 210 188 __________O___ -1 19.4000 113.000 2 7 295
1907242N17118 1907 44 WP MM NOT_NAMED 1907-08-31 18:00:00 NR 19.5078 112.759 main 188 146 __________P___ -1 19.5078 112.759 2 8 295
1907242N17118 1907 44 WP MM NOT_NAMED 1907-08-31 21:00:00 NR 19.6698 112.384 main 147 107 __________P___ -1 19.6698 112.384 2 8 294
1907242N17118 1907 44 WP MM NOT_NAMED 1907-09-01 00:00:00 NR 19.8237 112.003 main 107 74 __________P___ -1 19.8237 112.003 2 8 292
1907242N17118 1907 44 WP MM NOT_NAMED 1907-09-01 03:00:00 NR 19.9600 111.624 main 74 63 __________P___ -1 19.9600 111.624 2 8 290
1907242N17118 1907 44 WP MM NOT_NAMED 1907-09-01 04:00:00 NR 20.0000 111.500 main 63 43 __________O___ -1 20.0000 111.500 2 7 287
1907242N17118 1907 44 WP MM NOT_NAMED 1907-09-01 06:00:00 NR 20.0669 111.261 main 47 15 __________P___ -1 20.0669 111.261 2 7 285
1907242N17118 1907 44 WP MM NOT_NAMED 1907-09-01 09:00:00 NR 20.1485 110.908 main 15 11 __________P___ -1 20.1485 110.908 2 7 283
1907242N17118 1907 44 WP MM NOT_NAMED 1907-09-01 12:00:00 NR 20.2160 110.561 main 11 0 __________P___ -1 20.2160 110.561 2 7 281
1907242N17118 1907 44 WP MM NOT_NAMED 1907-09-01 15:00:00 NR 20.2786 110.215 main 0 0 __________P___ -1 20.2786 110.215 2 7 281
1907242N17118 1907 44 WP MM NOT_NAMED 1907-09-01 16:00:00 NR 20.3000 110.100 main 0 0 __________O___ -1 20.3000 110.100 2 7 282
1907242N17118 1907 44 WP MM NOT_NAMED 1907-09-01 18:00:00 NR 20.3451 109.869 main 0 10 __________P___ -1 20.3451 109.869 2 7 282
1907242N17118 1907 44 WP MM NOT_NAMED 1907-09-01 21:00:00 NR 20.4179 109.520 main 33 33 __________P___ -1 20.4179 109.520 2 7 283
1907242N17118 1907 44 WP MM NOT_NAMED 1907-09-02 00:00:00 NR 20.4947 109.169 main 61 70 __________P___ -1 20.4947 109.169 2 7 283
1907242N17118 1907 44 WP MM NOT_NAMED 1907-09-02 03:00:00 NR 20.5736 108.817 main 96 96 __________P___ -1 20.5736 108.817 2 7 283
1907242N17118 1907 44 WP MM NOT_NAMED 1907-09-02 04:00:00 NR 20.6000 108.700 main 103 __________O___ -1 20.6000 108.700 2 7 284

Digital Typhoon Data and Search

About IBTrACS Database

This database is a web-friendly format of International Best Track Archive for Climate Stewardship (IBTrACS), a global best track data archive curated by NOAA dating back to 1842.

Updated: 2021-10-21